Main page
METAR-TAF:

METAR-TAF

Airports :

Ouagadougou Airport

Ouagadougou, Burkina Faso

latitude: 12-21N, longitude: 001-31W, elevation: 316 m

Current weather observation

The report was made 45 minutes ago, at 04:00 UTC
Wind 5 kt from the Northeast
Temperature 23°C
Humidity 25%
Pressure 1010 hPa
Visibility 10 km or more
no clouds below 1500 m and no cumulonimbus

METAR: DFFD 210400Z 04005KT CAVOK 23/02 Q1010 NOSIG

Time: 04:45 (04:45 UTC)

Forecast

The report was made 5 hours and 45 minutes ago, at 23:00 UTC
Forecast valid from 21 at 00 UTC to 22 at 06 UTC
Wind 10 kt from the Northeast
Visibility: 8000 m
Temporary
from 21 at 06 UTC to 21 at 10 UTC
Visibility: 4000 m
haze

TAF: DFFD 202300Z 2100/2206 04010KT 8000 NSC TEMPO 2106/2110 4000 HZ

Weather observations and forecasts of more than 4000 airports (METAR and TAF reports).

The available stations are represented by yellow and red dots on the map.

Hover mouse over dot to see the name of the station.

Then click to see weather observations and forecasts.

To change the map : click on the green buttons with a black cross to zoom in, on the green button with a dash to zoom out, or on the green arrows for adjacent maps.


METAR-TAF: